createdAt,value
2018-02-19T00:02:03.369Z,53.20
2018-02-19T00:04:31.757Z,54.80
2018-02-19T00:07:00.175Z,54.50
2018-02-19T00:09:27.791Z,54.50
2018-02-19T00:11:55.423Z,54.40
2018-02-19T00:14:23.065Z,55.20
2018-02-19T00:16:51.446Z,55.40
2018-02-19T00:19:19.095Z,55.40
2018-02-19T00:21:46.715Z,55.80
2018-02-19T00:24:15.098Z,55.60
2018-02-19T00:26:43.547Z,55.30
2018-02-19T00:29:11.170Z,55.20
2018-02-19T00:31:38.825Z,54.20
2018-02-19T00:34:07.222Z,53.00
2018-02-19T00:36:35.605Z,52.00
2018-02-19T00:39:03.254Z,51.80
2018-02-19T00:41:30.873Z,53.10
2018-02-19T00:43:59.297Z,50.20
2018-02-19T00:46:26.917Z,50.20
2018-02-19T00:48:54.542Z,50.20
2018-02-19T00:51:22.201Z,49.30
2018-02-19T00:53:49.917Z,49.00
2018-02-19T00:56:17.586Z,49.10
2018-02-19T00:58:45.207Z,49.10
2018-02-19T01:01:13.591Z,48.00
2018-02-19T01:03:41.234Z,47.90
2018-02-19T01:06:08.854Z,47.80
2018-02-19T01:08:36.511Z,48.30
2018-02-19T01:11:04.151Z,49.10
2018-02-19T01:13:31.773Z,49.60
2018-02-19T01:16:00.176Z,50.80
2018-02-19T01:18:27.806Z,50.80
2018-02-19T01:20:55.570Z,51.40
2018-02-19T01:23:23.197Z,50.20
2018-02-19T01:25:50.827Z,50.60
2018-02-19T01:28:18.485Z,51.50
2018-02-19T01:30:46.102Z,52.30
2018-02-19T01:33:14.537Z,53.20
2018-02-19T01:35:42.152Z,53.10
2018-02-19T01:38:09.780Z,51.10
2018-02-19T01:40:37.434Z,51.00
2018-02-19T01:43:05.051Z,51.90
2018-02-19T01:45:32.705Z,51.40
2018-02-19T01:48:00.322Z,50.40
2018-02-19T01:50:27.951Z,50.10
2018-02-19T01:52:55.589Z,49.40
2018-02-19T01:55:23.982Z,50.40
2018-02-19T01:57:52.402Z,50.90
2018-02-19T02:00:20.029Z,50.80
2018-02-19T02:02:47.662Z,49.90
2018-02-19T02:05:15.302Z,49.60
2018-02-19T02:07:42.937Z,51.10
2018-02-19T02:10:10.598Z,50.40
2018-02-19T02:12:38.230Z,50.00
2018-02-19T02:15:06.617Z,49.20
2018-02-19T02:17:35.033Z,49.20
2018-02-19T02:20:02.659Z,49.20
2018-02-19T02:22:30.322Z,48.60
2018-02-19T02:24:57.944Z,48.20
2018-02-19T02:27:25.569Z,49.00
2018-02-19T02:29:53.218Z,48.10
2018-02-19T02:32:20.847Z,48.10
2018-02-19T02:34:49.275Z,47.20
2018-02-19T02:37:17.181Z,47.10
2018-02-19T02:39:44.803Z,47.60
2018-02-19T02:42:13.220Z,50.30
2018-02-19T02:44:40.847Z,50.30
2018-02-19T02:47:08.547Z,50.90
2018-02-19T02:49:36.562Z,51.00
2018-02-19T02:52:04.178Z,51.10
2018-02-19T02:54:32.110Z,51.50
2018-02-19T02:56:59.738Z,52.00
2018-02-19T02:59:27.399Z,52.50
2018-02-19T03:01:55.018Z,52.70
2018-02-19T03:04:22.667Z,52.60
2018-02-19T03:06:51.077Z,54.20
2018-02-19T03:09:19.465Z,54.80
2018-02-19T03:11:47.129Z,54.80
2018-02-19T03:14:15.530Z,56.80
2018-02-19T03:16:43.155Z,56.80
2018-02-19T03:19:10.806Z,57.60
2018-02-19T03:21:38.421Z,57.50
2018-02-19T03:24:06.090Z,57.50
2018-02-19T03:26:33.710Z,58.60
2018-02-19T03:29:01.331Z,58.30
2018-02-19T03:31:28.974Z,58.60
2018-02-19T03:33:56.594Z,58.70
2018-02-19T03:36:24.245Z,58.80
2018-02-19T03:38:51.867Z,59.40
2018-02-19T03:41:20.260Z,60.60
2018-02-19T03:43:48.677Z,60.60
2018-02-19T03:46:16.294Z,60.60
2018-02-19T03:48:43.941Z,60.60
2018-02-19T03:51:11.565Z,60.70
2018-02-19T03:53:39.191Z,60.40
2018-02-19T03:56:06.849Z,60.90
2018-02-19T03:58:34.473Z,61.80
2018-02-19T04:01:02.137Z,61.60
2018-02-19T04:03:29.761Z,62.40
2018-02-19T04:05:57.380Z,62.80
2018-02-19T04:08:25.030Z,63.20
2018-02-19T04:10:52.653Z,63.20
2018-02-19T04:13:20.313Z,64.10
2018-02-19T04:15:47.948Z,63.60
2018-02-19T04:18:15.569Z,62.90
2018-02-19T04:20:43.210Z,63.10
2018-02-19T04:23:10.833Z,64.10
2018-02-19T04:25:39.254Z,65.20
2018-02-19T04:28:06.879Z,65.20
2018-02-19T04:30:34.501Z,65.30
2018-02-19T04:33:02.141Z,65.10
2018-02-19T04:35:29.769Z,65.10
2018-02-19T04:37:57.426Z,64.80
2018-02-19T04:40:25.054Z,65.00
2018-02-19T04:43:10.405Z,66.00
2018-02-19T04:45:43.708Z,67.00
2018-02-19T04:48:11.358Z,66.70
2018-02-19T04:50:39.036Z,66.80
2018-02-19T04:53:06.667Z,67.50
2018-02-19T04:55:34.638Z,69.10
2018-02-19T04:58:02.254Z,69.60
2018-02-19T05:00:30.983Z,71.60
2018-02-19T05:02:58.637Z,71.60
2018-02-19T05:05:26.262Z,70.80
2018-02-19T05:07:53.914Z,70.60
2018-02-19T05:10:21.550Z,70.80
2018-02-19T05:12:49.965Z,73.00
2018-02-19T05:15:17.577Z,72.90
2018-02-19T05:17:45.215Z,73.10
2018-02-19T05:20:12.848Z,72.10
2018-02-19T05:22:40.461Z,72.50
2018-02-19T05:25:08.122Z,72.10
2018-02-19T05:27:35.741Z,72.00
2018-02-19T05:30:06.186Z,72.70
2018-02-19T05:32:33.824Z,73.50
2018-02-19T05:35:01.715Z,74.20
2018-02-19T05:37:29.486Z,73.90
2018-02-19T05:39:57.107Z,73.80
2018-02-19T05:42:24.721Z,74.20
2018-02-19T05:44:52.371Z,75.30
2018-02-19T05:47:20.027Z,75.20
2018-02-19T05:49:47.681Z,75.50
2018-02-19T05:52:15.288Z,75.70
2018-02-19T05:54:42.905Z,76.90
2018-02-19T05:57:10.605Z,78.10
2018-02-19T05:59:38.320Z,78.60
2018-02-19T06:02:05.962Z,79.20
2018-02-19T06:04:33.589Z,78.90
2018-02-19T06:07:01.218Z,79.20
2018-02-19T06:09:28.865Z,80.20
2018-02-19T06:11:56.552Z,81.00
2018-02-19T06:14:24.257Z,82.30
2018-02-19T06:16:51.883Z,82.30
2018-02-19T06:19:19.497Z,82.20
2018-02-19T06:21:47.254Z,83.10
2018-02-19T06:24:15.485Z,82.40
2018-02-19T06:26:43.904Z,83.10
2018-02-19T06:29:12.315Z,83.00
2018-02-19T06:31:39.940Z,82.30
2018-02-19T06:34:08.372Z,82.80
2018-02-19T06:36:36.035Z,82.70
2018-02-19T06:39:03.765Z,80.50
2018-02-19T06:41:31.403Z,81.30
2018-02-19T06:43:59.092Z,81.90
2018-02-19T06:46:26.735Z,81.00
2018-02-19T06:48:54.365Z,79.40
2018-02-19T06:51:22.027Z,77.90
2018-02-19T06:53:49.649Z,77.70
2018-02-19T06:56:17.770Z,75.10
2018-02-19T06:58:45.454Z,75.00
2018-02-19T07:01:13.089Z,74.70
2018-02-19T07:03:40.751Z,73.30
2018-02-19T07:06:09.130Z,71.20
2018-02-19T07:08:37.509Z,69.90
2018-02-19T07:11:05.158Z,69.80
2018-02-19T07:13:32.777Z,69.80
2018-02-19T07:16:01.201Z,67.80
2018-02-19T07:18:28.897Z,67.80
2018-02-19T07:20:56.519Z,67.00
2018-02-19T07:23:24.928Z,64.60
2018-02-19T07:25:52.553Z,64.50
2018-02-19T07:28:20.251Z,64.00
2018-02-19T07:30:47.887Z,63.90
2018-02-19T07:33:15.506Z,63.70
2018-02-19T07:35:43.925Z,63.10
2018-02-19T07:38:11.541Z,63.00
2018-02-19T07:40:39.226Z,62.10
2018-02-19T07:43:06.844Z,58.50
2018-02-19T07:45:34.470Z,56.20
2018-02-19T07:48:02.109Z,56.10
2018-02-19T07:50:29.735Z,58.70
2018-02-19T07:52:57.422Z,56.50
2018-02-19T07:55:25.808Z,53.80
2018-02-19T07:57:54.202Z,53.80
2018-02-19T08:00:21.861Z,53.80
2018-02-19T08:02:49.477Z,51.90
2018-02-19T08:05:17.133Z,49.50
2018-02-19T08:07:44.765Z,48.70
2018-02-19T08:10:12.595Z,48.10
2018-02-19T08:12:40.242Z,47.80
2018-02-19T08:15:07.862Z,46.60
2018-02-19T08:17:35.525Z,45.40
2018-02-19T08:20:03.139Z,45.40
2018-02-19T08:22:30.754Z,44.70
2018-02-19T08:24:59.169Z,41.90
2018-02-19T08:27:26.789Z,41.80
2018-02-19T08:29:54.442Z,39.80
2018-02-19T08:32:22.054Z,38.80
2018-02-19T08:34:49.665Z,37.60
2018-02-19T08:37:17.474Z,37.40
2018-02-19T08:39:45.608Z,38.00
2018-02-19T08:42:14.025Z,32.80
2018-02-19T08:44:41.650Z,32.80
2018-02-19T08:47:09.265Z,33.10
2018-02-19T08:49:37.508Z,33.20
2018-02-19T08:52:05.189Z,32.60
2018-02-19T08:54:33.614Z,32.30
2018-02-19T08:57:01.245Z,32.20
2018-02-19T08:59:28.865Z,31.70
2018-02-19T09:01:56.498Z,31.50
2018-02-19T09:04:24.310Z,29.70
2018-02-19T09:06:53.434Z,28.80
2018-02-19T09:09:21.045Z,29.40
2018-02-19T09:11:48.706Z,27.20
2018-02-19T09:14:18.414Z,26.70
2018-02-19T09:16:46.314Z,23.60
2018-02-19T09:19:17.058Z,21.60
2018-02-19T09:21:45.086Z,21.40
2018-02-19T09:24:13.469Z,21.10
2018-02-19T09:26:41.926Z,20.20
2018-02-19T09:29:09.540Z,20.00
2018-02-19T09:31:38.611Z,19.50
2018-02-19T09:34:06.936Z,19.40
2018-02-19T09:36:35.320Z,19.10
2018-02-19T09:39:02.968Z,19.50
2018-02-19T09:41:31.460Z,18.30
2018-02-19T09:43:59.221Z,18.30
2018-02-19T09:46:26.838Z,17.30
2018-02-19T09:48:54.461Z,16.10
2018-02-19T09:51:22.109Z,16.00
2018-02-19T09:53:51.350Z,14.70
2018-02-19T09:56:19.023Z,14.60
2018-02-19T09:58:46.629Z,14.40
2018-02-19T10:01:14.250Z,15.00
2018-02-19T10:03:41.922Z,15.50
2018-02-19T10:06:10.511Z,14.50
2018-02-19T10:08:38.283Z,15.00
2018-02-19T10:11:06.663Z,13.30
2018-02-19T10:13:34.278Z,13.20
2018-02-19T10:16:01.943Z,12.90
2018-02-19T10:18:30.372Z,14.40
2018-02-19T10:20:58.286Z,14.20
2018-02-19T10:23:26.670Z,13.30
2018-02-19T10:25:54.286Z,13.30
2018-02-19T10:28:21.945Z,13.90
2018-02-19T10:30:50.035Z,13.80
2018-02-19T10:33:17.690Z,13.70
2018-02-19T10:35:46.073Z,13.40
2018-02-19T10:38:13.689Z,13.40
2018-02-19T10:40:41.343Z,13.90
2018-02-19T10:43:09.733Z,13.80
2018-02-19T10:45:38.894Z,14.20
2018-02-19T10:48:06.509Z,14.20
2018-02-19T10:50:34.889Z,14.90
2018-02-19T10:53:02.561Z,14.90
2018-02-19T10:55:30.180Z,14.10
2018-02-19T10:57:58.916Z,13.90
2018-02-19T11:00:33.003Z,14.50
2018-02-19T11:03:00.653Z,14.10
2018-02-19T11:05:29.038Z,13.90
2018-02-19T11:07:57.414Z,13.80
2018-02-19T11:10:25.068Z,13.70
2018-02-19T11:12:53.657Z,13.30
2018-02-19T11:15:21.317Z,13.30
2018-02-19T11:17:48.938Z,12.60
2018-02-19T11:20:16.559Z,11.20
2018-02-19T11:22:45.369Z,11.20
2018-02-19T11:25:13.046Z,12.60
2018-02-19T11:27:40.698Z,12.00
2018-02-19T11:30:08.353Z,11.40
2018-02-19T11:32:36.737Z,11.50
2018-02-19T11:35:05.341Z,11.50
2018-02-19T11:37:33.002Z,11.50
2018-02-19T11:40:00.661Z,12.40
2018-02-19T11:42:28.274Z,12.00
2018-02-19T11:44:57.708Z,11.80
2018-02-19T11:47:25.354Z,11.80
2018-02-19T11:49:53.805Z,14.00
2018-02-19T11:52:21.453Z,13.90
2018-02-19T11:54:49.067Z,14.20
2018-02-19T11:57:16.732Z,12.90
2018-02-19T11:59:44.378Z,12.80
2018-02-19T12:02:11.992Z,12.90
2018-02-19T12:04:39.645Z,12.50
2018-02-19T12:07:07.257Z,12.90
2018-02-19T12:09:34.869Z,12.50
2018-02-19T12:12:02.511Z,12.80
2018-02-19T12:14:30.914Z,11.80
2018-02-19T12:16:58.572Z,11.70
2018-02-19T12:19:26.194Z,11.60
2018-02-19T12:21:53.810Z,12.60
2018-02-19T12:24:21.461Z,12.60
2018-02-19T12:26:49.079Z,13.00
2018-02-19T12:29:18.050Z,13.80
2018-02-19T12:31:45.661Z,13.80
2018-02-19T12:34:14.046Z,14.70
2018-02-19T12:36:42.458Z,14.20
2018-02-19T12:39:10.077Z,14.20
2018-02-19T12:41:37.732Z,13.20
2018-02-19T12:44:05.476Z,14.20
2018-02-19T12:46:33.863Z,13.00
2018-02-19T12:49:02.274Z,13.80
2018-02-19T12:51:29.897Z,13.80
2018-02-19T12:53:57.559Z,14.40
2018-02-19T12:56:25.182Z,14.50
2018-02-19T12:58:53.565Z,14.00
2018-02-19T13:01:21.975Z,13.20
2018-02-19T13:03:49.590Z,13.20
2018-02-19T13:06:17.238Z,12.90
2018-02-19T13:08:44.866Z,11.90
2018-02-19T13:11:12.481Z,12.00
2018-02-19T13:13:40.132Z,10.80
2018-02-19T13:16:08.550Z,12.20
2018-02-19T13:18:36.213Z,12.20
2018-02-19T13:21:03.835Z,12.40
2018-02-19T13:23:31.458Z,12.80
2018-02-19T13:25:59.098Z,13.10
2018-02-19T13:28:26.717Z,11.80
2018-02-19T13:30:54.330Z,12.50
2018-02-19T13:33:21.970Z,12.80
2018-02-19T13:35:49.667Z,13.60
2018-02-19T13:38:17.768Z,13.70
2018-02-19T13:40:47.174Z,13.90
2018-02-19T13:43:15.560Z,13.10
2018-02-19T13:45:45.543Z,12.90
2018-02-19T13:48:13.921Z,13.30
2018-02-19T13:50:42.303Z,13.60
2018-02-19T13:53:17.959Z,13.50
2018-02-19T13:55:45.578Z,13.90
2018-02-19T13:58:13.238Z,13.50
2018-02-19T14:00:49.141Z,13.00
2018-02-19T14:03:22.985Z,13.00
2018-02-19T14:05:58.004Z,12.90
2018-02-19T14:08:25.654Z,13.30
2018-02-19T14:10:53.293Z,13.40
2018-02-19T14:13:20.946Z,12.60
2018-02-19T14:15:48.593Z,12.70
2018-02-19T14:18:16.217Z,13.30
2018-02-19T14:20:43.874Z,13.80
2018-02-19T14:23:11.497Z,14.20
2018-02-19T14:25:39.218Z,13.90
2018-02-19T14:28:06.866Z,14.20
2018-02-19T14:30:34.493Z,14.30
2018-02-19T14:33:02.149Z,14.80
2018-02-19T14:35:29.770Z,14.40
2018-02-19T14:37:57.405Z,14.70
2018-02-19T14:40:25.163Z,14.40
2018-02-19T14:42:52.792Z,14.30
2018-02-19T14:45:20.462Z,15.00
2018-02-19T14:47:48.850Z,15.70
2018-02-19T14:50:17.706Z,15.50
2018-02-19T14:52:45.354Z,15.50
2018-02-19T14:55:12.983Z,15.70
2018-02-19T14:57:42.576Z,16.30
2018-02-19T15:00:10.190Z,16.10
2018-02-19T15:02:38.578Z,16.20
2018-02-19T15:05:07.009Z,16.20
2018-02-19T15:07:34.622Z,16.10
2018-02-19T15:10:02.273Z,16.40
2018-02-19T15:12:29.956Z,16.60
2018-02-19T15:14:57.578Z,16.80
2018-02-19T15:17:26.183Z,17.80
2018-02-19T15:19:53.796Z,17.80
2018-02-19T15:22:21.455Z,17.70
2018-02-19T15:24:49.064Z,17.80
2018-02-19T15:27:16.676Z,17.80
2018-02-19T15:29:45.086Z,18.10
2018-02-19T15:32:12.722Z,18.10
2018-02-19T15:34:41.114Z,18.00
2018-02-19T15:37:09.529Z,18.30
2018-02-19T15:39:37.152Z,18.30
2018-02-19T15:42:04.782Z,18.00
2018-02-19T15:44:32.439Z,18.40
2018-02-19T15:47:00.822Z,18.60
2018-02-19T15:49:28.463Z,18.60
2018-02-19T15:51:56.113Z,18.80
2018-02-19T15:54:30.498Z,18.80
2018-02-19T15:57:06.490Z,19.40
2018-02-19T15:59:34.758Z,19.90
2018-02-19T16:02:02.410Z,19.30
2018-02-19T16:04:30.030Z,19.30
2018-02-19T16:06:57.656Z,19.70
2018-02-19T16:09:25.293Z,19.80
2018-02-19T16:11:52.925Z,19.50
2018-02-19T16:14:20.621Z,20.30
2018-02-19T16:16:49.005Z,21.30
2018-02-19T16:19:17.391Z,21.00
2018-02-19T16:21:45.044Z,21.30
2018-02-19T16:24:12.658Z,21.70
2018-02-19T16:26:41.081Z,23.40
2018-02-19T16:29:08.747Z,23.40
2018-02-19T16:31:36.382Z,23.90
2018-02-19T16:34:04.033Z,24.60
2018-02-19T16:36:31.646Z,25.70
2018-02-19T16:39:00.039Z,25.60
2018-02-19T16:41:28.454Z,26.10
2018-02-19T16:43:56.082Z,26.00
2018-02-19T16:46:23.693Z,25.60
2018-02-19T16:48:51.339Z,25.40
2018-02-19T16:51:18.965Z,26.70
2018-02-19T16:53:46.615Z,26.50
2018-02-19T16:56:14.235Z,27.50
2018-02-19T16:58:41.875Z,27.00
2018-02-19T17:01:09.517Z,29.80
2018-02-19T17:03:37.919Z,28.60
2018-02-19T17:06:05.577Z,28.60
2018-02-19T17:08:33.957Z,29.80
2018-02-19T17:11:01.582Z,29.80
2018-02-19T17:13:29.219Z,30.80
2018-02-19T17:15:56.863Z,33.00
2018-02-19T17:18:24.611Z,32.30
2018-02-19T17:20:52.210Z,32.10
2018-02-19T17:23:19.852Z,32.20
2018-02-19T17:25:47.493Z,32.40
2018-02-19T17:28:15.873Z,33.90
2018-02-19T17:30:43.516Z,34.00
2018-02-19T17:33:11.148Z,33.50
2018-02-19T17:35:39.591Z,34.50
2018-02-19T17:38:07.231Z,34.60
2018-02-19T17:40:34.911Z,33.90
2018-02-19T17:43:02.601Z,34.60
2018-02-19T17:45:30.250Z,35.30
2018-02-19T17:47:57.918Z,34.30
2018-02-19T17:50:25.582Z,34.10
2018-02-19T17:52:54.148Z,35.20
2018-02-19T17:55:21.778Z,35.20
2018-02-19T17:57:49.401Z,35.30
2018-02-19T18:00:17.053Z,34.60
2018-02-19T18:02:44.687Z,34.30
2018-02-19T18:05:12.353Z,35.20
2018-02-19T18:07:40.910Z,37.50
2018-02-19T18:10:09.426Z,37.20
2018-02-19T18:12:37.854Z,38.20
2018-02-19T18:15:05.470Z,38.20
2018-02-19T18:17:33.135Z,38.90
2018-02-19T18:20:00.756Z,38.60
2018-02-19T18:22:29.158Z,39.00
2018-02-19T18:24:56.809Z,39.00
2018-02-19T18:27:24.442Z,38.10
2018-02-19T18:29:52.104Z,38.20
2018-02-19T18:32:19.730Z,39.00
2018-02-19T18:34:47.350Z,39.90
2018-02-19T18:37:14.994Z,39.70
2018-02-19T18:39:42.627Z,40.40
2018-02-19T18:42:10.281Z,40.90
2018-02-19T18:44:37.918Z,39.10
2018-02-19T18:47:05.550Z,38.10
2018-02-19T18:49:33.197Z,38.10
2018-02-19T18:52:00.813Z,38.40
2018-02-19T18:54:28.465Z,37.60
2018-02-19T18:56:56.095Z,37.50
2018-02-19T18:59:23.717Z,37.80
2018-02-19T19:01:51.357Z,37.80
2018-02-19T19:04:18.997Z,37.80
2018-02-19T19:06:47.438Z,39.10
2018-02-19T19:09:27.020Z,39.10
2018-02-19T19:11:54.674Z,38.70
2018-02-19T19:14:22.303Z,37.90
2018-02-19T19:16:49.937Z,37.20
2018-02-19T19:19:17.578Z,37.50
2018-02-19T19:21:45.207Z,37.20
2018-02-19T19:24:12.866Z,38.20
2018-02-19T19:26:40.595Z,40.60
2018-02-19T19:29:08.256Z,41.60
2018-02-19T19:31:35.956Z,40.50
2018-02-19T19:34:03.578Z,41.20
2018-02-19T19:36:31.242Z,40.90
2018-02-19T19:38:58.865Z,42.30
2018-02-19T19:41:26.481Z,42.00
2018-02-19T19:43:54.127Z,42.40
2018-02-19T19:46:21.749Z,42.20
2018-02-19T19:48:49.409Z,43.10
2018-02-19T19:51:17.025Z,43.50
2018-02-19T19:53:45.405Z,44.10
2018-02-19T19:56:13.054Z,44.10
2018-02-19T19:58:40.674Z,43.90
2018-02-19T20:01:08.348Z,43.70
2018-02-19T20:03:35.977Z,42.50
2018-02-19T20:06:03.590Z,42.20
2018-02-19T20:08:31.245Z,41.90
2018-02-19T20:10:59.657Z,44.50
2018-02-19T20:13:28.084Z,44.40
2018-02-19T20:15:55.701Z,44.30
2018-02-19T20:18:23.326Z,44.50
2018-02-19T20:20:51.025Z,46.10
2018-02-19T20:23:18.646Z,44.10
2018-02-19T20:25:46.319Z,43.90
2018-02-19T20:28:13.954Z,44.70
2018-02-19T20:30:41.603Z,45.50
2018-02-19T20:33:09.245Z,45.20
2018-02-19T20:35:37.629Z,44.60
2018-02-19T20:38:05.293Z,44.50
2018-02-19T20:40:32.927Z,42.30
2018-02-19T20:43:00.538Z,41.60
2018-02-19T20:45:29.586Z,42.30
2018-02-19T20:47:57.205Z,42.40
2018-02-19T20:50:25.990Z,41.10
2018-02-19T20:52:53.769Z,40.80
2018-02-19T20:55:22.205Z,41.10
2018-02-19T20:57:49.859Z,41.10
2018-02-19T21:00:17.481Z,42.10
2018-02-19T21:02:45.150Z,43.00
2018-02-19T21:05:12.774Z,43.70
2018-02-19T21:07:40.410Z,44.00
2018-02-19T21:10:13.653Z,43.80
2018-02-19T21:12:42.165Z,44.50
2018-02-19T21:15:09.823Z,44.50
2018-02-19T21:17:37.448Z,45.40
2018-02-19T21:20:05.216Z,47.20
2018-02-19T21:22:32.981Z,47.30
2018-02-19T21:25:01.377Z,47.10
2018-02-19T21:27:29.064Z,47.00
2018-02-19T21:29:56.715Z,47.10
2018-02-19T21:32:25.102Z,47.30
2018-02-19T21:34:53.761Z,48.60
2018-02-19T21:37:21.388Z,47.90
2018-02-19T21:39:49.814Z,48.30
2018-02-19T21:42:17.511Z,48.40
2018-02-19T21:44:45.147Z,49.40
2018-02-19T21:47:12.809Z,49.10
2018-02-19T21:49:40.438Z,49.20
2018-02-19T21:52:09.005Z,48.70
2018-02-19T21:54:36.623Z,48.80
2018-02-19T21:57:04.466Z,48.30
2018-02-19T21:59:32.118Z,49.80
2018-02-19T22:01:59.735Z,49.30
2018-02-19T22:04:27.391Z,49.20
2018-02-19T22:06:55.014Z,49.40
2018-02-19T22:09:22.671Z,49.80
2018-02-19T22:11:50.314Z,49.70
2018-02-19T22:14:17.949Z,50.40
2018-02-19T22:16:45.671Z,50.70
2018-02-19T22:19:13.305Z,50.30
2018-02-19T22:21:40.937Z,50.70
2018-02-19T22:24:08.581Z,50.50
2018-02-19T22:26:36.262Z,50.60
2018-02-19T22:29:03.925Z,52.00
2018-02-19T22:31:31.612Z,52.40
2018-02-19T22:33:59.230Z,52.80
2018-02-19T22:36:27.652Z,52.90
2018-02-19T22:38:55.281Z,53.00
2018-02-19T22:41:22.932Z,53.00
2018-02-19T22:43:50.557Z,54.20
2018-02-19T22:46:18.177Z,53.40
2018-02-19T22:48:45.829Z,53.00
2018-02-19T22:51:13.525Z,53.10
2018-02-19T22:53:41.181Z,53.40
2018-02-19T22:56:08.874Z,53.50
2018-02-19T22:58:36.526Z,53.50
2018-02-19T23:01:04.342Z,53.20
2018-02-19T23:03:31.974Z,52.60
2018-02-19T23:05:59.921Z,52.80
2018-02-19T23:08:27.571Z,52.90
2018-02-19T23:10:55.198Z,52.80
2018-02-19T23:13:22.839Z,53.40
2018-02-19T23:15:51.238Z,54.70
2018-02-19T23:18:19.677Z,56.00
2018-02-19T23:20:47.293Z,56.10
2018-02-19T23:23:14.937Z,56.00
2018-02-19T23:25:42.573Z,56.50
2018-02-19T23:28:10.189Z,55.50
2018-02-19T23:30:37.867Z,54.40
2018-02-19T23:33:05.494Z,54.50
2018-02-19T23:35:33.123Z,54.20
2018-02-19T23:38:01.163Z,54.60
2018-02-19T23:40:28.799Z,54.90
2018-02-19T23:42:56.423Z,53.70
2018-02-19T23:45:24.087Z,53.70
2018-02-19T23:47:51.713Z,53.60
2018-02-19T23:50:19.345Z,54.10
2018-02-19T23:52:47.003Z,53.50
2018-02-19T23:55:14.868Z,53.20
2018-02-19T23:57:42.513Z,52.80
